createdAt,value
2023-11-18T00:01:54.815Z,101721.34
2023-11-18T00:04:21.115Z,101714.06
2023-11-18T00:06:47.792Z,101722.81
2023-11-18T00:09:14.061Z,101717.81
2023-11-18T00:11:40.296Z,101714.19
2023-11-18T00:14:06.522Z,101715.72
2023-11-18T00:16:32.866Z,101718.59
2023-11-18T00:18:59.151Z,101734.47
2023-11-18T00:21:25.383Z,101733.72
2023-11-18T00:23:51.598Z,101737.94
2023-11-18T00:26:18.003Z,101744.47
2023-11-18T00:28:44.935Z,101742.94
2023-11-18T00:31:11.279Z,101751.56
2023-11-18T00:33:37.917Z,101748.69
2023-11-18T00:36:09.083Z,101768.81
2023-11-18T00:38:35.304Z,101764.47
2023-11-18T00:41:01.575Z,101763.72
2023-11-18T00:43:27.831Z,101762.94
2023-11-18T00:45:54.089Z,101768.69
2023-11-18T00:48:20.329Z,101775.81
2023-11-18T00:50:46.628Z,101780.19
2023-11-18T00:53:12.887Z,101778.69
2023-11-18T00:55:39.174Z,101779.31
2023-11-18T00:58:05.413Z,101785.72
2023-11-18T01:00:33.132Z,101785.06
2023-11-18T01:03:00.659Z,101779.97
2023-11-18T01:05:29.185Z,101787.19
2023-11-18T01:07:56.874Z,101791.47
2023-11-18T01:10:23.147Z,101795.69
2023-11-18T01:12:49.367Z,101799.94
2023-11-18T01:15:15.771Z,101805.56
2023-11-18T01:17:42.185Z,101807.78
2023-11-18T01:20:08.468Z,101805.69
2023-11-18T01:22:34.746Z,101802.69
2023-11-18T01:25:00.991Z,101803.91
2023-11-18T01:27:27.211Z,101806.91
2023-11-18T01:29:53.501Z,101801.16
2023-11-18T01:32:19.777Z,101807.56
2023-11-18T01:34:46.023Z,101809.66
2023-11-18T01:37:12.287Z,101813.91
2023-11-18T01:39:38.533Z,101815.41
2023-11-18T01:42:04.758Z,101814.66
2023-11-18T01:44:30.972Z,101821.16
2023-11-18T01:46:57.759Z,101822.69
2023-11-18T01:49:23.990Z,101823.91
2023-11-18T01:51:51.677Z,101825.41
2023-11-18T01:54:17.883Z,101820.28
2023-11-18T01:56:44.782Z,101828.16
2023-11-18T01:59:11.004Z,101828.16
2023-11-18T02:01:37.279Z,101829.53
2023-11-18T02:04:04.037Z,101830.91
2023-11-18T02:06:30.351Z,101833.78
2023-11-18T02:08:56.588Z,101833.03
2023-11-18T02:11:24.192Z,101832.28
2023-11-18T02:13:50.569Z,101836.50
2023-11-18T02:16:16.814Z,101833.63
2023-11-18T02:18:45.610Z,101833.63
2023-11-18T02:21:11.880Z,101836.38
2023-11-18T02:23:38.368Z,101840.03
2023-11-18T02:26:06.464Z,101838.50
2023-11-18T02:28:32.810Z,101836.50
2023-11-18T02:30:59.108Z,101840.03
2023-11-18T02:33:25.419Z,101837.16
2023-11-18T02:35:57.635Z,101843.63
2023-11-18T02:38:23.858Z,101840.91
2023-11-18T02:40:50.109Z,101842.38
2023-11-18T02:43:16.377Z,101841.66
2023-11-18T02:45:42.736Z,101840.91
2023-11-18T02:48:09.052Z,101848.13
2023-11-18T02:50:35.396Z,101847.41
2023-11-18T02:53:01.683Z,101846.00
2023-11-18T02:55:28.447Z,101843.91
2023-11-18T02:57:54.698Z,101836.66
2023-11-18T03:00:20.931Z,101830.91
2023-11-18T03:02:47.746Z,101838.78
2023-11-18T03:05:14.017Z,101844.53
2023-11-18T03:07:40.301Z,101841.66
2023-11-18T03:10:06.539Z,101838.03
2023-11-18T03:12:32.769Z,101845.13
2023-11-18T03:14:59.037Z,101849.38
2023-11-18T03:17:25.308Z,101850.88
2023-11-18T03:19:51.808Z,101849.38
2023-11-18T03:22:18.119Z,101853.63
2023-11-18T03:24:44.332Z,101842.13
2023-11-18T03:27:14.488Z,101845.00
2023-11-18T03:29:40.703Z,101853.63
2023-11-18T03:32:06.944Z,101847.88
2023-11-18T03:34:33.282Z,101857.88
2023-11-18T03:36:59.707Z,101857.88
2023-11-18T03:39:25.915Z,101866.34
2023-11-18T03:41:52.186Z,101850.59
2023-11-18T03:44:19.498Z,101849.84
2023-11-18T03:46:45.760Z,101867.81
2023-11-18T03:49:12.003Z,101862.25
2023-11-18T03:51:38.252Z,101873.56
2023-11-18T03:54:07.490Z,101865.13
2023-11-18T03:56:33.716Z,101865.25
2023-11-18T03:58:59.969Z,101872.38
2023-11-18T04:01:26.430Z,101878.13
2023-11-18T04:03:54.064Z,101875.38
2023-11-18T04:06:24.232Z,101881.13
2023-11-18T04:08:50.455Z,101884.00
2023-11-18T04:11:16.679Z,101885.50
2023-11-18T04:13:42.932Z,101881.13
2023-11-18T04:16:09.159Z,101886.88
2023-11-18T04:18:35.375Z,101891.84
2023-11-18T04:21:03.590Z,101900.63
2023-11-18T04:23:29.874Z,101899.88
2023-11-18T04:25:56.167Z,101901.38
2023-11-18T04:28:22.840Z,101893.50
2023-11-18T04:30:49.057Z,101905.75
2023-11-18T04:33:15.328Z,101910.13
2023-11-18T04:35:41.558Z,101897.13
2023-11-18T04:38:07.793Z,101898.63
2023-11-18T04:40:34.065Z,101902.88
2023-11-18T04:43:00.298Z,101902.88
2023-11-18T04:45:26.504Z,101920.13
2023-11-18T04:47:52.778Z,101916.63
2023-11-18T04:50:20.507Z,101916.00
2023-11-18T04:52:46.764Z,101917.38
2023-11-18T04:55:12.987Z,101916.00
2023-11-18T04:57:39.217Z,101908.91
2023-11-18T05:00:05.420Z,101912.53
2023-11-18T05:02:31.703Z,101913.13
2023-11-18T05:04:57.959Z,101900.28
2023-11-18T05:07:24.205Z,101913.91
2023-11-18T05:09:50.410Z,101908.16
2023-11-18T05:12:16.626Z,101900.13
2023-11-18T05:14:42.837Z,101908.91
2023-11-18T05:17:09.153Z,101913.91
2023-11-18T05:19:35.493Z,101908.91
2023-11-18T05:22:03.192Z,101917.53
2023-11-18T05:24:29.416Z,101910.41
2023-11-18T05:26:55.632Z,101916.13
2023-11-18T05:29:21.841Z,101917.66
2023-11-18T05:31:49.595Z,101919.78
2023-11-18T05:34:15.848Z,101922.66
2023-11-18T05:36:42.203Z,101913.28
2023-11-18T05:39:08.424Z,101920.53
2023-11-18T05:41:34.623Z,101906.16
2023-11-18T05:44:00.887Z,101911.91
2023-11-18T05:46:27.468Z,101901.91
2023-11-18T05:48:53.803Z,101917.03
2023-11-18T05:51:20.314Z,101901.28
2023-11-18T05:53:46.656Z,101915.66
2023-11-18T05:56:12.972Z,101919.91
2023-11-18T05:58:39.224Z,101922.78
2023-11-18T06:01:05.425Z,101919.91
2023-11-18T06:03:31.726Z,101925.66
2023-11-18T06:05:57.989Z,101920.66
2023-11-18T06:08:25.381Z,101924.91
2023-11-18T06:10:51.631Z,101921.41
2023-11-18T06:13:17.866Z,101924.28
2023-11-18T06:15:50.874Z,101928.66
2023-11-18T06:18:17.117Z,101921.41
2023-11-18T06:20:43.369Z,101923.69
2023-11-18T06:23:09.704Z,101935.19
2023-11-18T06:25:35.961Z,101930.19
2023-11-18T06:28:02.196Z,101932.31
2023-11-18T06:30:28.413Z,101932.31
2023-11-18T06:32:54.638Z,101935.19
2023-11-18T06:35:20.907Z,101934.41
2023-11-18T06:37:47.636Z,101940.94
2023-11-18T06:40:13.864Z,101935.19
2023-11-18T06:42:40.080Z,101942.41
2023-11-18T06:45:06.814Z,101942.41
2023-11-18T06:47:33.211Z,101944.69
2023-11-18T06:49:59.685Z,101947.56
2023-11-18T06:52:26.555Z,101955.41
2023-11-18T06:54:52.768Z,101954.06
2023-11-18T06:57:18.972Z,101949.66
2023-11-18T06:59:45.189Z,101949.66
2023-11-18T07:02:11.718Z,101945.44
2023-11-18T07:04:38.018Z,101946.03
2023-11-18T07:07:04.260Z,101953.28
2023-11-18T07:09:30.487Z,101944.19
2023-11-18T07:11:56.689Z,101958.28
2023-11-18T07:14:22.966Z,101955.50
2023-11-18T07:16:49.268Z,101948.50
2023-11-18T07:19:15.528Z,101961.25
2023-11-18T07:21:41.803Z,101960.50
2023-11-18T07:24:12.085Z,101968.53
2023-11-18T07:26:38.304Z,101967.59
2023-11-18T07:29:04.539Z,101967.72
2023-11-18T07:31:31.267Z,101977.59
2023-11-18T07:33:57.545Z,101989.00
2023-11-18T07:36:23.865Z,101979.31
2023-11-18T07:38:50.091Z,101995.19
2023-11-18T07:41:16.342Z,101996.88
2023-11-18T07:43:42.619Z,101992.63
2023-11-18T07:46:09.073Z,102002.91
2023-11-18T07:48:35.575Z,102005.91
2023-11-18T07:51:01.800Z,102008.16
2023-11-18T07:53:28.027Z,102014.38
2023-11-18T07:55:55.192Z,102013.00
2023-11-18T07:58:23.858Z,102013.47
2023-11-18T08:00:50.421Z,102020.06
2023-11-18T08:03:17.801Z,102017.00
2023-11-18T08:05:46.946Z,102021.66
2023-11-18T08:08:14.279Z,102016.22
2023-11-18T08:10:40.597Z,102014.34
2023-11-18T08:13:06.849Z,102020.53
2023-11-18T08:15:37.172Z,102011.69
2023-11-18T08:18:03.459Z,102013.09
2023-11-18T08:20:29.730Z,102024.56
2023-11-18T08:22:55.972Z,102021.41
2023-11-18T08:25:22.202Z,102012.06
2023-11-18T08:27:48.415Z,102012.56
2023-11-18T08:30:14.626Z,102019.66
2023-11-18T08:32:40.943Z,102006.22
2023-11-18T08:35:07.238Z,102006.50
2023-11-18T08:37:33.480Z,102000.81
2023-11-18T08:39:59.711Z,102002.31
2023-11-18T08:42:25.934Z,102006.22
2023-11-18T08:44:52.208Z,102014.50
2023-11-18T08:47:18.553Z,102013.13
2023-11-18T08:49:44.830Z,102013.56
2023-11-18T08:52:11.076Z,102018.06
2023-11-18T08:54:38.403Z,102019.59
2023-11-18T08:57:04.629Z,102025.59
2023-11-18T08:59:30.844Z,102025.72
2023-11-18T09:01:57.345Z,102027.25
2023-11-18T09:04:23.852Z,102030.25
2023-11-18T09:06:50.100Z,102028.88
2023-11-18T09:09:16.302Z,102048.72
2023-11-18T09:11:42.530Z,102037.75
2023-11-18T09:14:08.857Z,102034.34
2023-11-18T09:16:35.519Z,102041.75
2023-11-18T09:19:02.368Z,102033.09
2023-11-18T09:21:28.717Z,102040.28
2023-11-18T09:23:54.982Z,102035.22
2023-11-18T09:26:21.301Z,102036.19
2023-11-18T09:28:47.638Z,102033.34
2023-11-18T09:31:14.564Z,102020.25
2023-11-18T09:33:40.931Z,102024.34
2023-11-18T09:36:07.801Z,102026.06
2023-11-18T09:38:34.058Z,102025.75
2023-11-18T09:41:00.355Z,102027.34
2023-11-18T09:43:26.597Z,102033.34
2023-11-18T09:45:52.923Z,102032.09
2023-11-18T09:48:19.239Z,102037.78
2023-11-18T09:50:45.495Z,102032.91
2023-11-18T09:53:11.848Z,102039.47
2023-11-18T09:55:38.965Z,102046.41
2023-11-18T09:58:05.854Z,102051.06
2023-11-18T10:00:32.059Z,102055.75
2023-11-18T10:02:58.597Z,102047.25
2023-11-18T10:05:24.979Z,102049.50
2023-11-18T10:07:51.291Z,102038.31
2023-11-18T10:10:17.556Z,102039.81
2023-11-18T10:12:43.774Z,102044.06
2023-11-18T10:15:11.108Z,102040.59
2023-11-18T10:17:37.414Z,102040.59
2023-11-18T10:20:03.674Z,102037.06
2023-11-18T10:22:29.897Z,102030.72
2023-11-18T10:24:56.930Z,102020.00
2023-11-18T10:27:23.145Z,102022.25
2023-11-18T10:29:50.042Z,102037.38
2023-11-18T10:32:17.290Z,102040.38
2023-11-18T10:34:43.715Z,102035.38
2023-11-18T10:37:10.823Z,102032.66
2023-11-18T10:39:37.076Z,102034.91
2023-11-18T10:42:07.015Z,102041.41
2023-11-18T10:44:33.269Z,102049.44
2023-11-18T10:46:59.545Z,102047.31
2023-11-18T10:49:25.808Z,102048.66
2023-11-18T10:51:52.020Z,102048.66
2023-11-18T10:54:18.241Z,102047.31
2023-11-18T10:56:44.561Z,102040.16
2023-11-18T10:59:11.228Z,102033.81
2023-11-18T11:01:37.561Z,102036.69
2023-11-18T11:04:04.742Z,102043.19
2023-11-18T11:06:31.080Z,102048.34
2023-11-18T11:08:57.327Z,102049.81
2023-11-18T11:11:23.585Z,102053.47
2023-11-18T11:13:50.261Z,102044.22
2023-11-18T11:16:20.872Z,102049.97
2023-11-18T11:18:47.176Z,102042.09
2023-11-18T11:21:13.400Z,102042.88
2023-11-18T11:23:39.681Z,102047.22
2023-11-18T11:26:05.968Z,102028.50
2023-11-18T11:28:32.275Z,102022.75
2023-11-18T11:30:58.522Z,102025.63
2023-11-18T11:33:24.844Z,102025.75
2023-11-18T11:35:51.078Z,102033.00
2023-11-18T11:38:17.377Z,102034.25
2023-11-18T11:40:43.638Z,102028.03
2023-11-18T11:43:09.898Z,102020.25
2023-11-18T11:45:38.233Z,102017.13
2023-11-18T11:48:04.536Z,102014.16
2023-11-18T11:50:30.831Z,102013.25
2023-11-18T11:52:57.154Z,102010.94
2023-11-18T11:55:23.455Z,102007.00
2023-11-18T11:57:49.674Z,102000.66
2023-11-18T12:00:16.029Z,101998.53
2023-11-18T12:02:42.514Z,101995.03
2023-11-18T12:05:08.900Z,101989.47
2023-11-18T12:07:35.124Z,101990.34
2023-11-18T12:10:01.332Z,101989.84
2023-11-18T12:12:29.299Z,101984.84
2023-11-18T12:14:55.533Z,101977.00
2023-11-18T12:17:28.518Z,101959.13
2023-11-18T12:19:55.317Z,101962.91
2023-11-18T12:22:21.589Z,101956.50
2023-11-18T12:24:47.854Z,101965.13
2023-11-18T12:27:14.079Z,101957.91
2023-11-18T12:29:40.314Z,101959.25
2023-11-18T12:32:06.624Z,101957.16
2023-11-18T12:34:33.073Z,101957.91
2023-11-18T12:36:59.289Z,101949.28
2023-11-18T12:39:25.496Z,101944.41
2023-11-18T12:41:52.106Z,101953.91
2023-11-18T12:44:18.362Z,101943.91
2023-11-18T12:46:45.807Z,101948.31
2023-11-18T12:49:12.019Z,101955.69
2023-11-18T12:51:38.228Z,101954.19
2023-11-18T12:54:04.429Z,101949.94
2023-11-18T12:56:30.736Z,101951.44
2023-11-18T12:58:57.670Z,101944.31
2023-11-18T13:01:24.005Z,101945.69
2023-11-18T13:03:50.489Z,101939.31
2023-11-18T13:06:17.241Z,101916.94
2023-11-18T13:08:43.444Z,101923.31
2023-11-18T13:11:11.411Z,101919.69
2023-11-18T13:13:38.378Z,101909.69
2023-11-18T13:16:04.630Z,101908.19
2023-11-18T13:18:30.855Z,101915.44
2023-11-18T13:20:57.079Z,101912.56
2023-11-18T13:23:23.329Z,101913.94
2023-11-18T13:25:50.276Z,101923.91
2023-11-18T13:28:16.531Z,101925.44
2023-11-18T13:30:42.746Z,101925.44
2023-11-18T13:33:09.757Z,101918.19
2023-11-18T13:35:36.480Z,101921.03
2023-11-18T13:38:02.811Z,101910.94
2023-11-18T13:40:29.070Z,101911.06
2023-11-18T13:42:55.289Z,101909.53
2023-11-18T13:45:30.849Z,101905.31
2023-11-18T13:48:02.621Z,101891.69
2023-11-18T13:50:28.863Z,101903.94
2023-11-18T13:52:55.171Z,101905.31
2023-11-18T13:55:21.374Z,101905.31
2023-11-18T13:57:47.596Z,101908.19
2023-11-18T14:00:13.794Z,101900.91
2023-11-18T14:02:40.116Z,101895.94
2023-11-18T14:05:06.385Z,101900.91
2023-11-18T14:07:34.359Z,101893.69
2023-11-18T14:10:00.597Z,101892.94
2023-11-18T14:12:26.809Z,101885.81
2023-11-18T14:14:53.012Z,101895.94
2023-11-18T14:17:19.275Z,101902.44
2023-11-18T14:19:45.511Z,101899.69
2023-11-18T14:22:11.757Z,101901.09
2023-11-18T14:24:37.977Z,101905.63
2023-11-18T14:27:07.871Z,101904.81
2023-11-18T14:29:34.842Z,101887.50
2023-11-18T14:32:01.144Z,101891.03
2023-11-18T14:34:27.426Z,101889.56
2023-11-18T14:36:53.730Z,101877.72
2023-11-18T14:39:19.989Z,101882.31
2023-11-18T14:41:46.192Z,101873.97
2023-11-18T14:44:12.490Z,101869.06
2023-11-18T14:46:40.643Z,101873.88
2023-11-18T14:49:07.729Z,101872.50
2023-11-18T14:51:34.137Z,101858.94
2023-11-18T14:54:00.362Z,101856.22
2023-11-18T14:56:26.859Z,101855.00
2023-11-18T14:58:54.247Z,101850.72
2023-11-18T15:01:20.523Z,101851.75
2023-11-18T15:03:47.644Z,101845.50
2023-11-18T15:06:13.901Z,101845.72
2023-11-18T15:08:43.780Z,101841.38
2023-11-18T15:11:12.027Z,101844.00
2023-11-18T15:13:38.273Z,101825.50
2023-11-18T15:16:10.536Z,101819.97
2023-11-18T15:18:37.413Z,101829.75
2023-11-18T15:21:03.645Z,101828.47
2023-11-18T15:23:29.989Z,101838.88
2023-11-18T15:25:56.444Z,101843.25
2023-11-18T15:28:22.747Z,101852.16
2023-11-18T15:30:48.964Z,101853.53
2023-11-18T15:33:15.233Z,101849.91
2023-11-18T15:35:42.379Z,101832.88
2023-11-18T15:38:08.702Z,101835.88
2023-11-18T15:40:34.922Z,101821.72
2023-11-18T15:43:01.755Z,101818.25
2023-11-18T15:45:28.140Z,101801.97
2023-11-18T15:47:55.225Z,101796.78
2023-11-18T15:50:22.380Z,101786.75
2023-11-18T15:52:48.738Z,101787.63
2023-11-18T15:55:15.053Z,101791.09
2023-11-18T15:57:42.063Z,101796.09
2023-11-18T16:00:08.322Z,101788.69
2023-11-18T16:02:34.623Z,101798.22
2023-11-18T16:05:00.898Z,101789.47
2023-11-18T16:07:29.807Z,101792.34
2023-11-18T16:09:56.005Z,101776.19
2023-11-18T16:12:22.208Z,101757.28
2023-11-18T16:14:49.312Z,101749.16
2023-11-18T16:17:16.397Z,101756.94
2023-11-18T16:19:42.645Z,101753.91
2023-11-18T16:22:08.853Z,101752.63
2023-11-18T16:24:35.682Z,101763.66
2023-11-18T16:27:01.907Z,101757.41
2023-11-18T16:29:28.146Z,101753.53
2023-11-18T16:31:54.441Z,101760.91
2023-11-18T16:34:20.712Z,101753.16
2023-11-18T16:36:48.653Z,101752.25
2023-11-18T16:39:14.869Z,101740.66
2023-11-18T16:41:45.746Z,101752.69
2023-11-18T16:44:13.118Z,101757.19
2023-11-18T16:46:39.456Z,101734.16
2023-11-18T16:49:05.711Z,101733.03
2023-11-18T16:51:31.923Z,101736.50
2023-11-18T16:53:58.672Z,101740.63
2023-11-18T16:56:26.645Z,101733.34
2023-11-18T16:58:52.906Z,101731.13
2023-11-18T17:01:19.123Z,101736.63
2023-11-18T17:03:45.470Z,101723.59
2023-11-18T17:06:15.771Z,101713.97
2023-11-18T17:08:42.028Z,101712.34
2023-11-18T17:11:08.297Z,101701.06
2023-11-18T17:13:34.519Z,101700.94
2023-11-18T17:16:05.256Z,101689.41
2023-11-18T17:18:31.541Z,101680.78
2023-11-18T17:20:57.776Z,101695.31
2023-11-18T17:23:24.068Z,101697.19
2023-11-18T17:25:50.317Z,101694.06
2023-11-18T17:28:17.994Z,101680.31
2023-11-18T17:30:44.293Z,101666.03
2023-11-18T17:33:10.564Z,101672.50
2023-11-18T17:35:37.311Z,101666.34
2023-11-18T17:38:03.614Z,101678.88
2023-11-18T17:40:29.892Z,101672.56
2023-11-18T17:42:56.125Z,101681.81
2023-11-18T17:45:22.955Z,101679.06
2023-11-18T17:47:49.227Z,101667.66
2023-11-18T17:50:16.922Z,101656.47
2023-11-18T17:52:43.233Z,101643.47
2023-11-18T17:55:09.476Z,101626.88
2023-11-18T17:57:35.699Z,101626.75
2023-11-18T18:00:01.922Z,101644.03
2023-11-18T18:02:28.245Z,101646.91
2023-11-18T18:04:54.519Z,101635.09
2023-11-18T18:07:20.741Z,101635.47
2023-11-18T18:09:47.406Z,101619.41
2023-11-18T18:12:13.658Z,101624.31
2023-11-18T18:14:39.915Z,101614.69
2023-11-18T18:17:10.049Z,101626.22
2023-11-18T18:19:36.289Z,101644.84
2023-11-18T18:22:02.492Z,101649.47
2023-11-18T18:24:28.724Z,101660.28
2023-11-18T18:26:54.945Z,101644.56
2023-11-18T18:29:21.223Z,101625.84
2023-11-18T18:31:48.264Z,101630.38
2023-11-18T18:34:14.496Z,101618.94
2023-11-18T18:36:40.726Z,101606.16
2023-11-18T18:39:07.075Z,101614.69
2023-11-18T18:41:35.531Z,101611.69
2023-11-18T18:44:02.576Z,101614.47
2023-11-18T18:46:28.797Z,101618.72
2023-11-18T18:48:55.244Z,101619.34
2023-11-18T18:51:21.465Z,101615.63
2023-11-18T18:53:47.705Z,101617.50
2023-11-18T18:56:13.997Z,101613.66
2023-11-18T18:58:40.244Z,101614.16
2023-11-18T19:01:06.531Z,101607.53
2023-11-18T19:03:32.890Z,101597.44
2023-11-18T19:06:00.540Z,101598.78
2023-11-18T19:08:27.428Z,101584.28
2023-11-18T19:10:53.671Z,101582.78
2023-11-18T19:13:19.883Z,101589.81
2023-11-18T19:15:53.780Z,101581.19
2023-11-18T19:18:20.239Z,101579.53
2023-11-18T19:20:46.476Z,101572.06
2023-11-18T19:23:13.414Z,101575.53
2023-11-18T19:25:44.005Z,101564.00
2023-11-18T19:28:10.582Z,101557.31
2023-11-18T19:30:36.885Z,101554.81
2023-11-18T19:33:03.124Z,101559.28
2023-11-18T19:35:29.380Z,101557.91
2023-11-18T19:37:55.660Z,101547.91
2023-11-18T19:40:21.888Z,101540.66
2023-11-18T19:42:48.110Z,101527.75
2023-11-18T19:45:14.942Z,101522.00
2023-11-18T19:47:41.247Z,101524.13
2023-11-18T19:50:07.541Z,101509.00
2023-11-18T19:52:33.777Z,101509.00
2023-11-18T19:55:00.049Z,101514.75
2023-11-18T19:57:26.264Z,101514.03
2023-11-18T19:59:52.486Z,101506.75
2023-11-18T20:02:18.721Z,101506.00
2023-11-18T20:04:46.012Z,101507.38
2023-11-18T20:07:12.226Z,101505.28
2023-11-18T20:09:38.447Z,101510.25
2023-11-18T20:12:05.568Z,101507.38
2023-11-18T20:14:32.081Z,101498.00
2023-11-18T20:16:59.426Z,101503.03
2023-11-18T20:19:25.670Z,101497.28
2023-11-18T20:21:54.031Z,101502.28
2023-11-18T20:24:20.425Z,101484.28
2023-11-18T20:26:47.273Z,101477.75
2023-11-18T20:29:13.527Z,101483.50
2023-11-18T20:31:39.751Z,101464.78
2023-11-18T20:34:06.025Z,101451.75
2023-11-18T20:36:32.935Z,101445.25
2023-11-18T20:38:59.147Z,101452.53
2023-11-18T20:41:25.380Z,101439.50
2023-11-18T20:43:51.663Z,101441.00
2023-11-18T20:46:17.906Z,101438.13
2023-11-18T20:48:44.283Z,101425.13
2023-11-18T20:51:10.500Z,101418.00
2023-11-18T20:53:36.721Z,101420.03
2023-11-18T20:56:08.242Z,101426.50
2023-11-18T20:58:34.698Z,101427.25
2023-11-18T21:01:00.934Z,101421.50
2023-11-18T21:03:27.304Z,101420.03
2023-11-18T21:05:53.717Z,101419.25
2023-11-18T21:08:20.016Z,101422.91
2023-11-18T21:10:46.408Z,101405.63
2023-11-18T21:13:12.631Z,101412.00
2023-11-18T21:15:41.708Z,101413.50
2023-11-18T21:18:07.983Z,101399.00
2023-11-18T21:20:34.227Z,101383.25
2023-11-18T21:23:00.485Z,101368.88
2023-11-18T21:25:26.713Z,101362.50
2023-11-18T21:27:52.928Z,101357.47
2023-11-18T21:30:20.567Z,101350.97
2023-11-18T21:32:46.942Z,101340.22
2023-11-18T21:35:13.267Z,101339.47
2023-11-18T21:37:39.685Z,101332.97
2023-11-18T21:40:05.903Z,101331.47
2023-11-18T21:42:32.120Z,101318.47
2023-11-18T21:44:58.352Z,101309.75
2023-11-18T21:47:24.612Z,101297.47
2023-11-18T21:49:52.516Z,101299.63
2023-11-18T21:52:19.046Z,101303.88
2023-11-18T21:54:45.280Z,101295.25
2023-11-18T21:57:11.512Z,101292.28
2023-11-18T21:59:38.012Z,101285.00
2023-11-18T22:02:04.360Z,101292.28
2023-11-18T22:04:30.663Z,101290.75
2023-11-18T22:06:58.381Z,101277.03
2023-11-18T22:09:24.779Z,101287.03
2023-11-18T22:11:51.874Z,101277.66
2023-11-18T22:14:18.737Z,101280.53
2023-11-18T22:16:53.517Z,101269.66
2023-11-18T22:19:19.740Z,101276.19
2023-11-18T22:21:45.949Z,101265.31
2023-11-18T22:24:12.161Z,101271.81
2023-11-18T22:26:39.261Z,101264.56
2023-11-18T22:29:05.574Z,101274.56
2023-11-18T22:31:31.819Z,101263.72
2023-11-18T22:34:01.903Z,101254.34
2023-11-18T22:36:35.866Z,101245.72
2023-11-18T22:39:02.082Z,101224.09
2023-11-18T22:41:28.386Z,101222.59
2023-11-18T22:43:54.611Z,101214.72
2023-11-18T22:46:20.878Z,101204.59
2023-11-18T22:48:47.116Z,101202.34
2023-11-18T22:51:13.391Z,101179.34
2023-11-18T22:53:39.639Z,101184.38
2023-11-18T22:56:05.897Z,101164.91
2023-11-18T22:58:32.130Z,101171.38
2023-11-18T23:00:58.360Z,101170.66
2023-11-18T23:03:34.776Z,101161.91
2023-11-18T23:06:10.926Z,101166.16
2023-11-18T23:08:37.359Z,101154.66
2023-11-18T23:11:03.720Z,101141.69
2023-11-18T23:13:29.934Z,101135.19
2023-11-18T23:15:56.143Z,101143.03
2023-11-18T23:18:22.450Z,101141.56
2023-11-18T23:20:48.759Z,101134.31
2023-11-18T23:23:15.041Z,101132.94
2023-11-18T23:25:41.250Z,101129.97
2023-11-18T23:28:07.499Z,101114.13
2023-11-18T23:30:33.732Z,101103.97
2023-11-18T23:33:00.087Z,101086.72
2023-11-18T23:35:26.416Z,101089.50
2023-11-18T23:37:52.766Z,101080.25
2023-11-18T23:40:19.083Z,101072.25
2023-11-18T23:42:46.570Z,101073.66
2023-11-18T23:45:12.774Z,101067.91
2023-11-18T23:47:39.011Z,101069.28
2023-11-18T23:50:05.226Z,101054.91
2023-11-18T23:52:31.449Z,101039.06
2023-11-18T23:54:57.680Z,101030.31
2023-11-18T23:57:24.039Z,101019.56
2023-11-18T23:59:50.268Z,101014.56
